createdAt,value
2017-03-26T00:06:56.641Z,0
2017-03-26T00:16:56.649Z,0
2017-03-26T00:26:56.572Z,0
2017-03-26T00:36:56.620Z,0
2017-03-26T00:46:56.594Z,0
2017-03-26T00:56:56.637Z,0
2017-03-26T01:06:56.642Z,0
2017-03-26T01:16:56.558Z,0
2017-03-26T01:26:56.637Z,0
2017-03-26T01:36:56.595Z,0
2017-03-26T01:46:56.571Z,0
2017-03-26T01:56:56.613Z,0
2017-03-26T02:06:56.575Z,0
2017-03-26T02:16:56.549Z,0
2017-03-26T02:26:56.594Z,0
2017-03-26T02:36:56.600Z,0
2017-03-26T02:46:56.523Z,0
2017-03-26T02:56:56.564Z,0
2017-03-26T03:06:56.544Z,0
2017-03-26T03:16:56.568Z,0
2017-03-26T03:26:56.588Z,0
2017-03-26T03:36:56.549Z,0
2017-03-26T03:46:56.606Z,0
2017-03-26T03:56:56.591Z,0
2017-03-26T04:06:56.504Z,0
2017-03-26T04:16:56.610Z,0
2017-03-26T04:26:56.565Z,0
2017-03-26T04:36:56.611Z,0
2017-03-26T04:46:56.541Z,0
2017-03-26T04:56:56.530Z,0
2017-03-26T05:06:56.602Z,0
2017-03-26T05:16:56.533Z,0
2017-03-26T05:26:56.501Z,5
2017-03-26T05:36:56.493Z,15
2017-03-26T05:46:56.541Z,25
2017-03-26T05:56:56.520Z,30
2017-03-26T06:06:56.569Z,45
2017-03-26T06:16:56.613Z,60
2017-03-26T06:26:56.564Z,70
2017-03-26T06:36:56.645Z,115
2017-03-26T06:46:56.601Z,150
2017-03-26T06:56:56.659Z,160
2017-03-26T07:06:56.632Z,175
2017-03-26T07:16:56.680Z,170
2017-03-26T07:26:56.663Z,175
2017-03-26T07:36:56.633Z,185
2017-03-26T07:46:56.631Z,210
2017-03-26T07:56:56.595Z,205
2017-03-26T08:06:56.622Z,210
2017-03-26T08:16:56.638Z,205
2017-03-26T08:26:56.681Z,215
2017-03-26T08:36:56.666Z,210
2017-03-26T08:46:56.720Z,240
2017-03-26T08:56:56.670Z,270
2017-03-26T09:06:56.682Z,180
2017-03-26T09:16:56.674Z,205
2017-03-26T09:26:56.665Z,215
2017-03-26T09:36:56.711Z,175
2017-03-26T09:46:56.705Z,160
2017-03-26T09:56:56.721Z,185
2017-03-26T10:06:56.732Z,170
2017-03-26T10:16:56.873Z,180
2017-03-26T10:26:56.724Z,190
2017-03-26T10:36:56.757Z,190
2017-03-26T10:46:56.767Z,205
2017-03-26T10:56:56.803Z,180
2017-03-26T11:06:56.843Z,150
2017-03-26T11:16:56.817Z,140
2017-03-26T11:26:56.804Z,140
2017-03-26T11:36:56.868Z,135
2017-03-26T11:46:56.795Z,140
2017-03-26T11:56:56.814Z,140
2017-03-26T12:46:19.537Z,140
2017-03-26T12:56:19.441Z,140
2017-03-26T13:06:19.500Z,140
2017-03-26T13:16:19.627Z,140
2017-03-26T13:26:19.447Z,140
2017-03-26T13:36:19.607Z,140
2017-03-26T13:46:19.629Z,140
2017-03-26T13:56:19.494Z,165
2017-03-26T14:06:19.584Z,175
2017-03-26T14:16:20.181Z,145
2017-03-26T14:26:19.535Z,135
2017-03-26T14:36:19.776Z,125
2017-03-26T14:46:19.620Z,125
2017-03-26T14:56:19.728Z,120
2017-03-26T15:06:19.669Z,120
2017-03-26T15:16:20.191Z,120
2017-03-26T15:26:19.581Z,120
2017-03-26T15:36:19.665Z,115
2017-03-26T15:46:19.671Z,115
2017-03-26T15:56:19.669Z,110
2017-03-26T16:06:19.680Z,105
2017-03-26T16:16:19.771Z,100
